sensor_id;sensor_type;location;lat;lon;timestamp;pressure;altitude;pressure_sealevel;temperature;humidity
62617;BME280;62539;51.190;6.808;2022-12-18T00:00:53;102539.63;;;17.00;51.23
62617;BME280;62539;51.190;6.808;2022-12-18T00:03:18;102536.09;;;16.95;51.56
62617;BME280;62539;51.190;6.808;2022-12-18T00:05:50;102541.31;;;16.89;51.72
62617;BME280;62539;51.190;6.808;2022-12-18T00:08:18;102540.44;;;16.82;51.85
62617;BME280;62539;51.190;6.808;2022-12-18T00:10:44;102536.94;;;16.77;51.73
62617;BME280;62539;51.190;6.808;2022-12-18T00:13:10;102539.56;;;16.72;51.71
62617;BME280;62539;51.190;6.808;2022-12-18T00:15:38;102547.41;;;16.68;51.72
62617;BME280;62539;51.190;6.808;2022-12-18T00:18:04;102546.53;;;16.64;51.71
62617;BME280;62539;51.190;6.808;2022-12-18T00:20:30;102543.03;;;16.59;52.09
62617;BME280;62539;51.190;6.808;2022-12-18T00:22:56;102552.63;;;16.54;52.01
62617;BME280;62539;51.190;6.808;2022-12-18T00:25:21;102555.25;;;16.51;51.96
62617;BME280;62539;51.190;6.808;2022-12-18T00:27:47;102553.47;;;16.46;52.06
62617;BME280;62539;51.190;6.808;2022-12-18T00:30:13;102549.97;;;16.41;52.29
62617;BME280;62539;51.190;6.808;2022-12-18T00:32:38;102548.22;;;16.37;52.47
62617;BME280;62539;51.190;6.808;2022-12-18T00:35:05;102545.56;;;16.33;52.16
62617;BME280;62539;51.190;6.808;2022-12-18T00:37:33;102551.69;;;16.30;52.34
62617;BME280;62539;51.190;6.808;2022-12-18T00:39:59;102548.16;;;16.25;52.50
62617;BME280;62539;51.190;6.808;2022-12-18T00:42:24;102554.25;;;16.22;52.58
62617;BME280;62539;51.190;6.808;2022-12-18T00:45:08;102549.91;;;16.20;52.63
62617;BME280;62539;51.190;6.808;2022-12-18T00:47:34;102552.50;;;16.16;52.70
62617;BME280;62539;51.190;6.808;2022-12-18T00:49:59;102539.38;;;16.12;52.80
62617;BME280;62539;51.190;6.808;2022-12-18T00:52:24;102537.63;;;16.09;52.44
62617;BME280;62539;51.190;6.808;2022-12-18T00:54:50;102542.88;;;16.06;52.67
62617;BME280;62539;51.190;6.808;2022-12-18T00:57:15;102544.59;;;16.04;52.82
62617;BME280;62539;51.190;6.808;2022-12-18T00:59:40;102553.31;;;16.00;53.17
62617;BME280;62539;51.190;6.808;2022-12-18T01:02:06;102548.91;;;15.97;52.91
62617;BME280;62539;51.190;6.808;2022-12-18T01:04:32;102545.44;;;15.94;52.95
62617;BME280;62539;51.190;6.808;2022-12-18T01:06:58;102537.56;;;15.91;53.11
62617;BME280;62539;51.190;6.808;2022-12-18T01:09:23;102535.81;;;15.88;53.32
62617;BME280;62539;51.190;6.808;2022-12-18T01:11:49;102532.25;;;15.84;53.24
62617;BME280;62539;51.190;6.808;2022-12-18T01:14:14;102534.00;;;15.82;52.84
62617;BME280;62539;51.190;6.808;2022-12-18T01:16:40;102536.59;;;15.79;53.20
62617;BME280;62539;51.190;6.808;2022-12-18T01:19:05;102545.31;;;15.77;52.96
62617;BME280;62539;51.190;6.808;2022-12-18T01:21:31;102547.03;;;15.73;53.35
62617;BME280;62539;51.190;6.808;2022-12-18T01:23:56;102546.13;;;15.71;53.20
62617;BME280;62539;51.190;6.808;2022-12-18T01:26:23;102546.13;;;15.68;53.28
62617;BME280;62539;51.190;6.808;2022-12-18T01:28:50;102535.63;;;15.65;53.62
62617;BME280;62539;51.190;6.808;2022-12-18T01:31:22;102545.22;;;15.61;53.52
62617;BME280;62539;51.190;6.808;2022-12-18T01:33:51;102535.59;;;15.58;53.48
62617;BME280;62539;51.190;6.808;2022-12-18T01:36:22;102535.59;;;15.55;53.44
62617;BME280;62539;51.190;6.808;2022-12-18T01:38:51;102527.72;;;15.52;53.64
62617;BME280;62539;51.190;6.808;2022-12-18T01:41:22;102525.97;;;15.50;53.87
62617;BME280;62539;51.190;6.808;2022-12-18T01:43:54;102534.69;;;15.49;53.65
62617;BME280;62539;51.190;6.808;2022-12-18T01:46:26;102525.06;;;15.46;53.63
62617;BME280;62539;51.190;6.808;2022-12-18T01:48:59;102521.56;;;15.44;53.85
62617;BME280;62539;51.190;6.808;2022-12-18T01:51:27;102523.28;;;15.42;53.82
62617;BME280;62539;51.190;6.808;2022-12-18T01:53:55;102533.75;;;15.40;53.80
62617;BME280;62539;51.190;6.808;2022-12-18T01:56:21;102532.84;;;15.37;53.82
62617;BME280;62539;51.190;6.808;2022-12-18T01:58:55;102536.31;;;15.34;53.98
62617;BME280;62539;51.190;6.808;2022-12-18T02:01:29;102531.94;;;15.32;53.83
62617;BME280;62539;51.190;6.808;2022-12-18T02:04:21;102540.63;;;15.31;53.70
62617;BME280;62539;51.190;6.808;2022-12-18T02:12:56;102532.75;;;15.24;53.89
62617;BME280;62539;51.190;6.808;2022-12-18T02:19:01;102519.66;;;15.21;54.13
62617;BME280;62539;51.190;6.808;2022-12-18T02:24:58;102532.69;;;15.18;54.20
62617;BME280;62539;51.190;6.808;2022-12-18T02:27:32;102530.94;;;15.17;54.03
62617;BME280;62539;51.190;6.808;2022-12-18T02:30:01;102528.34;;;15.17;54.10
62617;BME280;62539;51.190;6.808;2022-12-18T02:32:34;102531.81;;;15.16;53.86
62617;BME280;62539;51.190;6.808;2022-12-18T02:35:06;102518.78;;;15.18;54.00
62617;BME280;62539;51.190;6.808;2022-12-18T02:37:35;102513.59;;;15.28;53.37
62617;BME280;62539;51.190;6.808;2022-12-18T02:40:05;102504.13;;;15.43;53.13
62617;BME280;62539;51.190;6.808;2022-12-18T02:42:32;102507.69;;;15.57;52.34
62617;BME280;62539;51.190;6.808;2022-12-18T02:44:57;102499.91;;;15.70;52.27
62617;BME280;62539;51.190;6.808;2022-12-18T02:47:28;102501.72;;;15.82;51.66
62617;BME280;62539;51.190;6.808;2022-12-18T02:50:27;102511.41;;;15.98;51.49
62617;BME280;62539;51.190;6.808;2022-12-18T02:53:15;102519.28;;;16.08;51.31
62617;BME280;62539;51.190;6.808;2022-12-18T03:01:30;102515.03;;;16.36;50.45
62617;BME280;62539;51.190;6.808;2022-12-18T03:04:14;102522.91;;;16.42;49.99
62617;BME280;62539;51.190;6.808;2022-12-18T03:06:49;102508.06;;;16.48;49.97
62617;BME280;62539;51.190;6.808;2022-12-18T03:09:21;102503.72;;;16.54;49.77
62617;BME280;62539;51.190;6.808;2022-12-18T03:11:56;102514.19;;;16.60;49.79
62617;BME280;62539;51.190;6.808;2022-12-18T03:14:52;102502.84;;;16.68;49.30
62617;BME280;62539;51.190;6.808;2022-12-18T03:17:25;102511.59;;;16.73;49.24
62617;BME280;62539;51.190;6.808;2022-12-18T03:19:53;102508.13;;;16.79;49.28
62617;BME280;62539;51.190;6.808;2022-12-18T03:22:25;102508.13;;;16.85;49.21
62617;BME280;62539;51.190;6.808;2022-12-18T03:24:55;102506.34;;;16.88;49.21
62617;BME280;62539;51.190;6.808;2022-12-18T03:27:24;102502.88;;;16.91;48.90
62617;BME280;62539;51.190;6.808;2022-12-18T03:29:56;102497.63;;;16.91;48.83
62617;BME280;62539;51.190;6.808;2022-12-18T03:32:48;102497.63;;;16.91;48.44
62617;BME280;62539;51.190;6.808;2022-12-18T03:35:26;102488.03;;;16.90;48.72
62617;BME280;62539;51.190;6.808;2022-12-18T03:37:56;102499.38;;;16.89;48.95
62617;BME280;62539;51.190;6.808;2022-12-18T03:46:28;102500.25;;;16.82;48.77
62617;BME280;62539;51.190;6.808;2022-12-18T03:49:02;102495.00;;;16.82;48.95
62617;BME280;62539;51.190;6.808;2022-12-18T03:51:53;102495.88;;;16.81;48.71
62617;BME280;62539;51.190;6.808;2022-12-18T03:54:25;102495.00;;;16.83;48.59
62617;BME280;62539;51.190;6.808;2022-12-18T03:57:07;102484.53;;;16.85;48.04
62617;BME280;62539;51.190;6.808;2022-12-18T03:59:37;102485.41;;;16.87;48.51
62617;BME280;62539;51.190;6.808;2022-12-18T04:02:06;102492.41;;;16.91;48.50
62617;BME280;62539;51.190;6.808;2022-12-18T04:04:35;102495.91;;;16.96;48.31
62617;BME280;62539;51.190;6.808;2022-12-18T04:07:04;102485.44;;;16.99;48.44
62617;BME280;62539;51.190;6.808;2022-12-18T04:09:32;102481.06;;;17.04;48.38
62617;BME280;62539;51.190;6.808;2022-12-18T04:11:59;102474.94;;;17.09;48.20
62617;BME280;62539;51.190;6.808;2022-12-18T04:14:24;102473.19;;;17.11;48.15
62617;BME280;62539;51.190;6.808;2022-12-18T04:16:50;102476.66;;;17.14;48.17
62617;BME280;62539;51.190;6.808;2022-12-18T04:19:15;102469.69;;;17.15;48.35
62617;BME280;62539;51.190;6.808;2022-12-18T04:21:41;102480.19;;;17.15;48.18
62617;BME280;62539;51.190;6.808;2022-12-18T04:24:06;102478.44;;;17.14;48.18
62617;BME280;62539;51.190;6.808;2022-12-18T04:26:31;102469.69;;;17.12;48.15
62617;BME280;62539;51.190;6.808;2022-12-18T04:28:57;102474.06;;;17.10;48.27
62617;BME280;62539;51.190;6.808;2022-12-18T04:31:22;102483.69;;;17.08;48.21
62617;BME280;62539;51.190;6.808;2022-12-18T04:33:48;102483.69;;;17.04;48.42
62617;BME280;62539;51.190;6.808;2022-12-18T04:36:13;102483.69;;;17.01;48.44
62617;BME280;62539;51.190;6.808;2022-12-18T04:38:38;102475.81;;;17.00;48.46
62617;BME280;62539;51.190;6.808;2022-12-18T04:41:04;102479.31;;;16.99;48.55
62617;BME280;62539;51.190;6.808;2022-12-18T04:43:29;102481.94;;;17.00;48.16
62617;BME280;62539;51.190;6.808;2022-12-18T04:46:02;102480.19;;;17.02;48.29
62617;BME280;62539;51.190;6.808;2022-12-18T04:48:31;102472.31;;;17.04;48.27
62617;BME280;62539;51.190;6.808;2022-12-18T04:50:57;102473.19;;;17.08;48.17
62617;BME280;62539;51.190;6.808;2022-12-18T04:53:23;102462.69;;;17.09;48.02
62617;BME280;62539;51.190;6.808;2022-12-18T04:55:48;102463.56;;;17.13;48.06
62617;BME280;62539;51.190;6.808;2022-12-18T04:58:14;102464.44;;;17.15;47.97
62617;BME280;62539;51.190;6.808;2022-12-18T05:00:39;102460.94;;;17.17;47.69
62617;BME280;62539;51.190;6.808;2022-12-18T05:03:04;102454.81;;;17.20;47.69
62617;BME280;62539;51.190;6.808;2022-12-18T05:05:30;102448.69;;;17.24;47.57
62617;BME280;62539;51.190;6.808;2022-12-18T05:07:55;102437.31;;;17.27;47.49
62617;BME280;62539;51.190;6.808;2022-12-18T05:10:21;102440.78;;;17.32;47.29
62617;BME280;62539;51.190;6.808;2022-12-18T05:12:46;102449.53;;;17.36;47.38
62617;BME280;62539;51.190;6.808;2022-12-18T05:15:33;102454.78;;;17.42;46.62
62617;BME280;62539;51.190;6.808;2022-12-18T05:17:59;102464.38;;;17.43;47.07
62617;BME280;62539;51.190;6.808;2022-12-18T05:20:26;102453.00;;;17.45;47.19
62617;BME280;62539;51.190;6.808;2022-12-18T05:22:53;102450.38;;;17.47;47.18
62617;BME280;62539;51.190;6.808;2022-12-18T05:25:19;102451.22;;;17.51;47.18
62617;BME280;62539;51.190;6.808;2022-12-18T05:27:45;102443.38;;;17.52;46.77
62617;BME280;62539;51.190;6.808;2022-12-18T05:30:11;102443.34;;;17.55;46.94
62617;BME280;62539;51.190;6.808;2022-12-18T05:32:38;102443.34;;;17.58;46.87
62617;BME280;62539;51.190;6.808;2022-12-18T05:35:04;102452.94;;;17.61;46.76
62617;BME280;62539;51.190;6.808;2022-12-18T05:37:31;102460.81;;;17.62;46.63
62617;BME280;62539;51.190;6.808;2022-12-18T05:39:56;102467.78;;;17.65;46.96
62617;BME280;62539;51.190;6.808;2022-12-18T05:42:21;102474.81;;;17.68;46.70
62617;BME280;62539;51.190;6.808;2022-12-18T05:44:47;102474.78;;;17.71;46.70
62617;BME280;62539;51.190;6.808;2022-12-18T05:47:13;102467.78;;;17.73;46.50
62617;BME280;62539;51.190;6.808;2022-12-18T05:49:38;102474.78;;;17.74;46.66
62617;BME280;62539;51.190;6.808;2022-12-18T05:52:04;102475.66;;;17.76;46.65
62617;BME280;62539;51.190;6.808;2022-12-18T05:54:29;102481.75;;;17.81;46.52
62617;BME280;62539;51.190;6.808;2022-12-18T05:56:56;102486.13;;;17.82;46.75
62617;BME280;62539;51.190;6.808;2022-12-18T05:59:21;102491.34;;;17.84;46.54
62617;BME280;62539;51.190;6.808;2022-12-18T06:01:47;102497.50;;;17.84;46.47
62617;BME280;62539;51.190;6.808;2022-12-18T06:04:12;102499.25;;;17.85;46.50
62617;BME280;62539;51.190;6.808;2022-12-18T06:06:38;102500.13;;;17.84;46.28
62617;BME280;62539;51.190;6.808;2022-12-18T06:09:03;102503.63;;;17.82;46.55
62617;BME280;62539;51.190;6.808;2022-12-18T06:11:34;102509.75;;;17.79;46.69
62617;BME280;62539;51.190;6.808;2022-12-18T06:14:01;102522.03;;;17.77;46.59
62617;BME280;62539;51.190;6.808;2022-12-18T06:16:27;102529.91;;;17.74;46.63
62617;BME280;62539;51.190;6.808;2022-12-18T06:18:58;102522.91;;;17.70;46.84
62617;BME280;62539;51.190;6.808;2022-12-18T06:21:26;102522.91;;;17.68;46.57
62617;BME280;62539;51.190;6.808;2022-12-18T06:23:52;102515.03;;;17.68;46.46
62617;BME280;62539;51.190;6.808;2022-12-18T06:26:17;102523.78;;;17.69;46.15
62617;BME280;62539;51.190;6.808;2022-12-18T06:28:43;102525.53;;;17.70;46.32
62617;BME280;62539;51.190;6.808;2022-12-18T06:31:09;102517.66;;;17.73;46.24
62617;BME280;62539;51.190;6.808;2022-12-18T06:33:35;102517.66;;;17.76;46.34
62617;BME280;62539;51.190;6.808;2022-12-18T06:36:07;102506.25;;;17.78;46.34
62617;BME280;62539;51.190;6.808;2022-12-18T06:38:36;102500.13;;;17.81;46.23
62617;BME280;62539;51.190;6.808;2022-12-18T06:41:15;102490.47;;;17.86;46.42
62617;BME280;62539;51.190;6.808;2022-12-18T06:43:43;102489.59;;;17.87;46.34
62617;BME280;62539;51.190;6.808;2022-12-18T06:46:09;102484.34;;;17.87;46.26
62617;BME280;62539;51.190;6.808;2022-12-18T06:48:35;102487.81;;;17.91;46.12
62617;BME280;62539;51.190;6.808;2022-12-18T06:51:01;102479.97;;;17.92;46.15
62617;BME280;62539;51.190;6.808;2022-12-18T06:53:27;102472.94;;;17.95;46.04
62617;BME280;62539;51.190;6.808;2022-12-18T06:55:59;102471.19;;;17.97;45.97
62617;BME280;62539;51.190;6.808;2022-12-18T06:58:26;102465.06;;;17.98;45.85
62617;BME280;62539;51.190;6.808;2022-12-18T07:00:52;102465.03;;;17.99;45.86
62617;BME280;62539;51.190;6.808;2022-12-18T07:03:17;102466.81;;;18.02;45.87
62617;BME280;62539;51.190;6.808;2022-12-18T07:05:43;102471.19;;;18.03;45.80
62617;BME280;62539;51.190;6.808;2022-12-18T07:08:08;102465.94;;;18.03;45.84
62617;BME280;62539;51.190;6.808;2022-12-18T07:10:40;102474.69;;;18.05;45.76
62617;BME280;62539;51.190;6.808;2022-12-18T07:13:07;102471.19;;;18.03;45.78
62617;BME280;62539;51.190;6.808;2022-12-18T07:15:32;102473.78;;;18.04;45.95
62617;BME280;62539;51.190;6.808;2022-12-18T07:17:58;102473.78;;;18.06;45.84
62617;BME280;62539;51.190;6.808;2022-12-18T07:20:23;102474.66;;;18.06;45.76
62617;BME280;62539;51.190;6.808;2022-12-18T07:22:49;102472.91;;;18.07;45.63
62617;BME280;62539;51.190;6.808;2022-12-18T07:25:14;102476.41;;;18.09;45.92
62617;BME280;62539;51.190;6.808;2022-12-18T07:27:40;102478.16;;;18.10;45.72
62617;BME280;62539;51.190;6.808;2022-12-18T07:30:06;102477.28;;;18.11;45.51
62617;BME280;62539;51.190;6.808;2022-12-18T07:32:32;102471.13;;;18.12;45.38
62617;BME280;62539;51.190;6.808;2022-12-18T07:34:57;102473.75;;;18.15;45.45
62617;BME280;62539;51.190;6.808;2022-12-18T07:37:23;102471.97;;;18.16;45.48
62617;BME280;62539;51.190;6.808;2022-12-18T07:39:48;102464.09;;;18.17;45.29
62617;BME280;62539;51.190;6.808;2022-12-18T07:42:13;102464.94;;;18.21;45.43
62617;BME280;62539;51.190;6.808;2022-12-18T07:45:00;102473.69;;;18.23;45.28
62617;BME280;62539;51.190;6.808;2022-12-18T07:47:29;102465.81;;;18.25;45.30
62617;BME280;62539;51.190;6.808;2022-12-18T07:49:54;102469.31;;;18.27;45.25
62617;BME280;62539;51.190;6.808;2022-12-18T07:52:20;102468.41;;;18.29;45.54
62617;BME280;62539;51.190;6.808;2022-12-18T07:54:46;102464.88;;;18.30;45.22
62617;BME280;62539;51.190;6.808;2022-12-18T07:57:14;102464.88;;;18.30;45.43
62617;BME280;62539;51.190;6.808;2022-12-18T07:59:40;102468.41;;;18.29;45.29
62617;BME280;62539;51.190;6.808;2022-12-18T08:02:05;102460.53;;;18.28;45.20
62617;BME280;62539;51.190;6.808;2022-12-18T08:04:31;102455.31;;;18.25;45.33
62617;BME280;62539;51.190;6.808;2022-12-18T08:06:56;102444.78;;;18.25;45.55
62617;BME280;62539;51.190;6.808;2022-12-18T08:09:21;102432.53;;;18.24;45.19
62617;BME280;62539;51.190;6.808;2022-12-18T08:11:47;102431.66;;;18.25;45.26
62617;BME280;62539;51.190;6.808;2022-12-18T08:14:12;102437.78;;;18.27;45.11
62617;BME280;62539;51.190;6.808;2022-12-18T08:16:38;102436.91;;;18.25;45.14
62617;BME280;62539;51.190;6.808;2022-12-18T08:19:04;102432.53;;;18.27;44.90
62617;BME280;62539;51.190;6.808;2022-12-18T08:21:31;102427.28;;;18.27;45.08
62617;BME280;62539;51.190;6.808;2022-12-18T08:23:58;102431.59;;;18.32;45.70
62617;BME280;62539;51.190;6.808;2022-12-18T08:26:28;102410.53;;;18.39;46.24
62617;BME280;62539;51.190;6.808;2022-12-18T08:28:57;102400.84;;;18.45;46.20
62617;BME280;62539;51.190;6.808;2022-12-18T08:31:24;102399.94;;;18.48;45.82
62617;BME280;62539;51.190;6.808;2022-12-18T08:33:52;102394.69;;;18.49;45.77
62617;BME280;62539;51.190;6.808;2022-12-18T08:36:19;102404.31;;;18.50;45.85
62617;BME280;62539;51.190;6.808;2022-12-18T08:38:46;102395.53;;;18.55;45.58
62617;BME280;62539;51.190;6.808;2022-12-18T08:41:13;102394.59;;;18.57;45.56
62617;BME280;62539;51.190;6.808;2022-12-18T08:43:40;102404.22;;;18.61;45.40
62617;BME280;62539;51.190;6.808;2022-12-18T08:46:26;102393.66;;;18.63;45.04
62617;BME280;62539;51.190;6.808;2022-12-18T08:48:56;102396.28;;;18.63;44.44
62617;BME280;62539;51.190;6.808;2022-12-18T08:51:21;102389.31;;;18.63;44.22
62617;BME280;62539;51.190;6.808;2022-12-18T08:53:47;102386.63;;;18.65;44.08
62617;BME280;62539;51.190;6.808;2022-12-18T08:56:13;102390.13;;;18.67;43.92
62617;BME280;62539;51.190;6.808;2022-12-18T08:58:40;102394.44;;;18.74;44.41
62617;BME280;62539;51.190;6.808;2022-12-18T09:01:08;102394.38;;;18.80;44.75
62617;BME280;62539;51.190;6.808;2022-12-18T09:03:35;102399.59;;;18.88;45.08
62617;BME280;62539;51.190;6.808;2022-12-18T09:06:02;102410.00;;;18.96;45.20
62617;BME280;62539;51.190;6.808;2022-12-18T09:08:28;102396.84;;;19.01;44.91
62617;BME280;62539;51.190;6.808;2022-12-18T09:10:54;102393.28;;;19.06;45.42
62617;BME280;62539;51.190;6.808;2022-12-18T09:13:20;102386.22;;;19.12;45.67
62617;BME280;62539;51.190;6.808;2022-12-18T09:15:48;102387.03;;;19.17;45.77
62617;BME280;62539;51.190;6.808;2022-12-18T09:18:17;102385.22;;;19.23;45.41
62617;BME280;62539;51.190;6.808;2022-12-18T09:20:44;102388.72;;;19.22;45.65
62617;BME280;62539;51.190;6.808;2022-12-18T09:23:10;102385.19;;;19.25;45.94
62617;BME280;62539;51.190;6.808;2022-12-18T09:25:36;102377.25;;;19.28;45.88
62617;BME280;62539;51.190;6.808;2022-12-18T09:28:06;102390.31;;;19.34;46.04
62617;BME280;62539;51.190;6.808;2022-12-18T09:30:39;102393.81;;;19.38;46.22
62617;BME280;62539;51.190;6.808;2022-12-18T09:33:06;102395.53;;;19.41;45.93
62617;BME280;62539;51.190;6.808;2022-12-18T09:35:32;102382.31;;;19.44;45.97
62617;BME280;62539;51.190;6.808;2022-12-18T09:37:57;102368.28;;;19.45;46.11
62617;BME280;62539;51.190;6.808;2022-12-18T09:40:25;102370.00;;;19.46;45.89
62617;BME280;62539;51.190;6.808;2022-12-18T09:43:03;102363.84;;;19.47;45.84
62617;BME280;62539;51.190;6.808;2022-12-18T09:45:39;102354.22;;;19.46;45.74
62617;BME280;62539;51.190;6.808;2022-12-18T09:48:17;102347.22;;;19.45;46.59
62617;BME280;62539;51.190;6.808;2022-12-18T09:50:49;102361.31;;;19.42;46.11
62617;BME280;62539;51.190;6.808;2022-12-18T09:53:22;102364.81;;;19.39;46.00
62617;BME280;62539;51.190;6.808;2022-12-18T09:55:52;102362.41;;;19.22;43.76
62617;BME280;62539;51.190;6.808;2022-12-18T09:58:30;102363.31;;;19.20;43.77
62617;BME280;62539;51.190;6.808;2022-12-18T10:01:00;102358.94;;;19.20;43.46
62617;BME280;62539;51.190;6.808;2022-12-18T10:03:26;102358.06;;;19.21;43.19
62617;BME280;62539;51.190;6.808;2022-12-18T10:09:39;102346.56;;;19.27;42.53
62617;BME280;62539;51.190;6.808;2022-12-18T10:20:45;102331.56;;;19.35;43.03
62617;BME280;62539;51.190;6.808;2022-12-18T10:23:25;102318.38;;;19.37;42.60
62617;BME280;62539;51.190;6.808;2022-12-18T10:26:06;102333.28;;;19.36;42.78
62617;BME280;62539;51.190;6.808;2022-12-18T10:28:39;102339.44;;;19.37;42.40
62617;BME280;62539;51.190;6.808;2022-12-18T10:31:07;102324.50;;;19.37;43.06
62617;BME280;62539;51.190;6.808;2022-12-18T10:33:41;102319.25;;;19.37;42.94
62617;BME280;62539;51.190;6.808;2022-12-18T10:36:07;102315.72;;;19.38;43.11
62617;BME280;62539;51.190;6.808;2022-12-18T10:38:34;102306.94;;;19.41;42.94
62617;BME280;62539;51.190;6.808;2022-12-18T10:41:05;102310.38;;;19.45;42.67
62617;BME280;62539;51.190;6.808;2022-12-18T10:43:43;102303.28;;;19.51;43.82
62617;BME280;62539;51.190;6.808;2022-12-18T10:54:24;102296.84;;;19.69;44.71
62617;BME280;62539;51.190;6.808;2022-12-18T10:56:50;102296.84;;;19.69;44.11
62617;BME280;62539;51.190;6.808;2022-12-18T10:59:17;102294.19;;;19.73;44.03
62617;BME280;62539;51.190;6.808;2022-12-18T11:01:54;102278.34;;;19.76;43.77
62617;BME280;62539;51.190;6.808;2022-12-18T11:04:27;102280.03;;;19.80;43.20
62617;BME280;62539;51.190;6.808;2022-12-18T11:07:01;102274.72;;;19.83;43.53
62617;BME280;62539;51.190;6.808;2022-12-18T11:09:41;102272.91;;;19.85;42.53
62617;BME280;62539;51.190;6.808;2022-12-18T11:12:20;102278.13;;;19.88;42.96
62617;BME280;62539;51.190;6.808;2022-12-18T11:14:49;102276.38;;;19.90;43.21
62617;BME280;62539;51.190;6.808;2022-12-18T11:17:24;102280.69;;;19.94;43.02
62617;BME280;62539;51.190;6.808;2022-12-18T11:20:07;102272.78;;;19.96;42.97
62617;BME280;62539;51.190;6.808;2022-12-18T11:22:54;102264.84;;;19.99;42.40
62617;BME280;62539;51.190;6.808;2022-12-18T11:25:22;102274.44;;;20.02;42.99
62617;BME280;62539;51.190;6.808;2022-12-18T11:28:00;102265.63;;;20.03;42.69
62617;BME280;62539;51.190;6.808;2022-12-18T11:30:33;102267.38;;;20.04;42.60
62617;BME280;62539;51.190;6.808;2022-12-18T11:33:13;102246.34;;;20.01;41.75
62617;BME280;62539;51.190;6.808;2022-12-18T11:35:54;102243.72;;;20.01;42.25
62617;BME280;62539;51.190;6.808;2022-12-18T11:38:26;102238.47;;;20.01;42.88
62617;BME280;62539;51.190;6.808;2022-12-18T11:44:03;102235.88;;;19.97;42.34
62617;BME280;62539;51.190;6.808;2022-12-18T11:46:38;102225.34;;;19.97;42.13
62617;BME280;62539;51.190;6.808;2022-12-18T11:49:17;102230.66;;;19.94;42.24
62617;BME280;62539;51.190;6.808;2022-12-18T11:51:51;102231.59;;;19.92;42.08
62617;BME280;62539;51.190;6.808;2022-12-18T11:54:23;102231.63;;;19.89;42.37
62617;BME280;62539;51.190;6.808;2022-12-18T11:57:39;102227.25;;;19.86;42.47
62617;BME280;62539;51.190;6.808;2022-12-18T12:00:04;102229.09;;;19.81;42.25
62617;BME280;62539;51.190;6.808;2022-12-18T12:08:16;102223.06;;;19.74;42.15
62617;BME280;62539;51.190;6.808;2022-12-18T12:11:22;102227.47;;;19.74;41.94
62617;BME280;62539;51.190;6.808;2022-12-18T12:28:17;102202.19;;;19.63;42.09
62617;BME280;62539;51.190;6.808;2022-12-18T12:31:13;102206.66;;;19.58;41.28
62617;BME280;62539;51.190;6.808;2022-12-18T12:34:22;102210.22;;;19.54;41.96
62617;BME280;62539;51.190;6.808;2022-12-18T12:39:59;102198.91;;;19.49;41.93
62617;BME280;62539;51.190;6.808;2022-12-18T12:42:42;102191.06;;;19.46;41.81
62617;BME280;62539;51.190;6.808;2022-12-18T12:45:36;102189.31;;;19.45;42.14
62617;BME280;62539;51.190;6.808;2022-12-18T12:48:16;102188.47;;;19.44;42.36
62617;BME280;62539;51.190;6.808;2022-12-18T12:50:46;102198.09;;;19.44;42.49
62617;BME280;62539;51.190;6.808;2022-12-18T12:53:22;102198.09;;;19.44;42.18
62617;BME280;62539;51.190;6.808;2022-12-18T12:55:54;102206.88;;;19.43;42.37
62617;BME280;62539;51.190;6.808;2022-12-18T13:01:32;102199.97;;;19.35;41.66
62617;BME280;62539;51.190;6.808;2022-12-18T13:04:12;102201.75;;;19.33;42.29
62617;BME280;62539;51.190;6.808;2022-12-18T13:07:27;102193.03;;;19.31;42.50
62617;BME280;62539;51.190;6.808;2022-12-18T13:13:09;102203.53;;;19.31;42.80
62617;BME280;62539;51.190;6.808;2022-12-18T13:15:42;102190.38;;;19.31;42.84
62617;BME280;62539;51.190;6.808;2022-12-18T13:20:38;102177.22;;;19.31;42.53
62617;BME280;62539;51.190;6.808;2022-12-18T13:31:01;102150.91;;;19.31;42.44
62617;BME280;62539;51.190;6.808;2022-12-18T13:33:42;102154.44;;;19.30;42.75
62617;BME280;62539;51.190;6.808;2022-12-18T13:36:13;102152.72;;;19.29;42.77
62617;BME280;62539;51.190;6.808;2022-12-18T13:39:31;102136.06;;;19.29;42.87
62617;BME280;62539;51.190;6.808;2022-12-18T13:44:32;102138.72;;;19.27;42.59
62617;BME280;62539;51.190;6.808;2022-12-18T13:47:01;102142.19;;;19.29;42.85
62617;BME280;62539;51.190;6.808;2022-12-18T13:52:17;102135.19;;;19.28;42.47
62617;BME280;62539;51.190;6.808;2022-12-18T13:54:50;102128.19;;;19.29;42.63
62617;BME280;62539;51.190;6.808;2022-12-18T13:57:30;102129.06;;;19.28;42.59
62617;BME280;62539;51.190;6.808;2022-12-18T13:59:59;102126.41;;;19.29;42.64
62617;BME280;62539;51.190;6.808;2022-12-18T14:02:59;102121.19;;;19.26;42.60
62617;BME280;62539;51.190;6.808;2022-12-18T14:05:29;102114.19;;;19.25;42.41
62617;BME280;62539;51.190;6.808;2022-12-18T14:08:10;102112.41;;;19.27;43.00
62617;BME280;62539;51.190;6.808;2022-12-18T14:10:45;102118.56;;;19.26;43.17
62617;BME280;62539;51.190;6.808;2022-12-18T14:13:28;102117.66;;;19.27;43.35
62617;BME280;62539;51.190;6.808;2022-12-18T14:15:56;102128.19;;;19.27;42.84
62617;BME280;62539;51.190;6.808;2022-12-18T14:21:03;102098.41;;;19.25;43.11
62617;BME280;62539;51.190;6.808;2022-12-18T14:23:41;102108.91;;;19.25;42.85
62617;BME280;62539;51.190;6.808;2022-12-18T14:26:24;102101.97;;;19.21;42.75
62617;BME280;62539;51.190;6.808;2022-12-18T14:29:16;102094.97;;;19.20;42.66
62617;BME280;62539;51.190;6.808;2022-12-18T14:32:12;102090.72;;;19.13;42.41
62617;BME280;62539;51.190;6.808;2022-12-18T14:34:46;102083.72;;;19.12;43.16
62617;BME280;62539;51.190;6.808;2022-12-18T14:37:13;102081.13;;;19.08;42.96
62617;BME280;62539;51.190;6.808;2022-12-18T14:39:52;102082.03;;;19.07;42.89
62617;BME280;62539;51.190;6.808;2022-12-18T14:42:26;102082.06;;;19.06;43.03
62617;BME280;62539;51.190;6.808;2022-12-18T14:47:59;102072.44;;;19.03;42.98